sensor_id;sensor_type;location;lat;lon;timestamp;P1;durP1;ratioP1;P2;durP2;ratioP2
55931;SDS011;41837;55.700;37.984;2022-12-17T00:01:30;36.00;;;16.00;;
55931;SDS011;41837;55.700;37.984;2022-12-17T00:04:16;29.23;;;15.18;;
55931;SDS011;41837;55.700;37.984;2022-12-17T00:07:00;31.95;;;15.93;;
55931;SDS011;41837;55.700;37.984;2022-12-17T00:12:47;30.17;;;13.43;;
55931;SDS011;41837;55.700;37.984;2022-12-17T00:15:32;31.02;;;13.23;;
55931;SDS011;41837;55.700;37.984;2022-12-17T00:18:18;30.45;;;15.20;;
55931;SDS011;41837;55.700;37.984;2022-12-17T00:21:04;30.42;;;13.65;;
55931;SDS011;41837;55.700;37.984;2022-12-17T00:23:54;26.80;;;13.18;;
55931;SDS011;41837;55.700;37.984;2022-12-17T00:26:59;24.80;;;10.80;;
55931;SDS011;41837;55.700;37.984;2022-12-17T00:29:45;33.80;;;16.10;;
55931;SDS011;41837;55.700;37.984;2022-12-17T00:32:30;34.35;;;18.83;;
55931;SDS011;41837;55.700;37.984;2022-12-17T00:35:17;40.92;;;19.83;;
55931;SDS011;41837;55.700;37.984;2022-12-17T00:38:02;41.92;;;21.23;;
55931;SDS011;41837;55.700;37.984;2022-12-17T00:40:50;51.05;;;26.25;;
55931;SDS011;41837;55.700;37.984;2022-12-17T00:43:36;50.35;;;24.67;;
55931;SDS011;41837;55.700;37.984;2022-12-17T00:46:24;41.17;;;19.38;;
55931;SDS011;41837;55.700;37.984;2022-12-17T00:49:10;47.58;;;23.40;;
55931;SDS011;41837;55.700;37.984;2022-12-17T00:51:56;43.38;;;20.35;;
55931;SDS011;41837;55.700;37.984;2022-12-17T00:54:41;42.92;;;20.60;;
55931;SDS011;41837;55.700;37.984;2022-12-17T00:57:28;38.47;;;18.63;;
55931;SDS011;41837;55.700;37.984;2022-12-17T01:00:13;36.58;;;17.58;;
55931;SDS011;41837;55.700;37.984;2022-12-17T01:05:51;28.70;;;14.77;;
55931;SDS011;41837;55.700;37.984;2022-12-17T01:08:37;31.25;;;15.25;;
55931;SDS011;41837;55.700;37.984;2022-12-17T01:11:23;28.75;;;12.50;;
55931;SDS011;41837;55.700;37.984;2022-12-17T01:14:08;26.88;;;11.98;;
55931;SDS011;41837;55.700;37.984;2022-12-17T01:16:54;26.27;;;11.15;;
55931;SDS011;41837;55.700;37.984;2022-12-17T01:19:39;21.65;;;10.25;;
55931;SDS011;41837;55.700;37.984;2022-12-17T01:22:25;27.52;;;13.82;;
55931;SDS011;41837;55.700;37.984;2022-12-17T01:25:10;26.67;;;13.50;;
55931;SDS011;41837;55.700;37.984;2022-12-17T01:27:57;28.52;;;13.70;;
55931;SDS011;41837;55.700;37.984;2022-12-17T01:30:42;26.48;;;11.50;;
55931;SDS011;41837;55.700;37.984;2022-12-17T01:33:27;24.27;;;12.77;;
55931;SDS011;41837;55.700;37.984;2022-12-17T01:36:11;24.33;;;13.35;;
55931;SDS011;41837;55.700;37.984;2022-12-17T01:38:56;23.17;;;12.13;;
55931;SDS011;41837;55.700;37.984;2022-12-17T01:41:41;21.58;;;11.57;;
55931;SDS011;41837;55.700;37.984;2022-12-17T01:44:38;22.45;;;11.13;;
55931;SDS011;41837;55.700;37.984;2022-12-17T01:47:41;27.13;;;11.45;;
55931;SDS011;41837;55.700;37.984;2022-12-17T01:50:34;21.17;;;11.20;;
55931;SDS011;41837;55.700;37.984;2022-12-17T01:53:26;24.75;;;11.68;;
55931;SDS011;41837;55.700;37.984;2022-12-17T01:56:15;22.63;;;10.43;;
55931;SDS011;41837;55.700;37.984;2022-12-17T01:59:00;23.77;;;10.93;;
55931;SDS011;41837;55.700;37.984;2022-12-17T02:01:47;22.27;;;11.10;;
55931;SDS011;41837;55.700;37.984;2022-12-17T02:04:31;21.65;;;10.27;;
55931;SDS011;41837;55.700;37.984;2022-12-17T02:10:33;23.05;;;10.25;;
55931;SDS011;41837;55.700;37.984;2022-12-17T02:13:40;19.83;;;10.07;;
55931;SDS011;41837;55.700;37.984;2022-12-17T02:16:41;22.33;;;10.90;;
55931;SDS011;41837;55.700;37.984;2022-12-17T02:25:59;17.25;;;7.97;;
55931;SDS011;41837;55.700;37.984;2022-12-17T02:28:52;16.95;;;8.25;;
55931;SDS011;41837;55.700;37.984;2022-12-17T02:31:39;20.02;;;10.18;;
55931;SDS011;41837;55.700;37.984;2022-12-17T02:34:27;14.63;;;7.55;;
55931;SDS011;41837;55.700;37.984;2022-12-17T02:37:12;18.33;;;9.00;;
55931;SDS011;41837;55.700;37.984;2022-12-17T02:39:57;20.10;;;9.83;;
55931;SDS011;41837;55.700;37.984;2022-12-17T02:42:45;26.63;;;9.77;;
55931;SDS011;41837;55.700;37.984;2022-12-17T02:45:35;22.38;;;10.05;;
55931;SDS011;41837;55.700;37.984;2022-12-17T02:48:21;29.35;;;10.85;;
55931;SDS011;41837;55.700;37.984;2022-12-17T02:51:07;22.88;;;10.82;;
55931;SDS011;41837;55.700;37.984;2022-12-17T02:53:54;15.98;;;6.80;;
55931;SDS011;41837;55.700;37.984;2022-12-17T02:56:38;19.98;;;10.73;;
55931;SDS011;41837;55.700;37.984;2022-12-17T02:59:23;21.47;;;11.40;;
55931;SDS011;41837;55.700;37.984;2022-12-17T03:02:13;23.83;;;11.65;;
55931;SDS011;41837;55.700;37.984;2022-12-17T03:04:58;20.73;;;10.55;;
55931;SDS011;41837;55.700;37.984;2022-12-17T03:07:46;23.85;;;11.90;;
55931;SDS011;41837;55.700;37.984;2022-12-17T03:10:31;22.80;;;9.73;;
55931;SDS011;41837;55.700;37.984;2022-12-17T03:13:26;22.42;;;11.43;;
55931;SDS011;41837;55.700;37.984;2022-12-17T03:16:14;19.30;;;8.50;;
55931;SDS011;41837;55.700;37.984;2022-12-17T03:19:01;21.30;;;10.55;;
55931;SDS011;41837;55.700;37.984;2022-12-17T03:21:47;24.42;;;11.70;;
55931;SDS011;41837;55.700;37.984;2022-12-17T03:24:31;22.23;;;10.30;;
55931;SDS011;41837;55.700;37.984;2022-12-17T03:27:16;19.63;;;9.98;;
55931;SDS011;41837;55.700;37.984;2022-12-17T03:30:01;22.45;;;11.07;;
55931;SDS011;41837;55.700;37.984;2022-12-17T03:32:47;24.52;;;10.57;;
55931;SDS011;41837;55.700;37.984;2022-12-17T03:35:34;21.48;;;10.98;;
55931;SDS011;41837;55.700;37.984;2022-12-17T03:38:20;18.77;;;8.63;;
55931;SDS011;41837;55.700;37.984;2022-12-17T03:41:05;19.85;;;10.10;;
55931;SDS011;41837;55.700;37.984;2022-12-17T03:43:49;22.13;;;11.48;;
55931;SDS011;41837;55.700;37.984;2022-12-17T03:46:34;23.35;;;11.68;;
55931;SDS011;41837;55.700;37.984;2022-12-17T03:49:19;18.90;;;9.10;;
55931;SDS011;41837;55.700;37.984;2022-12-17T03:52:04;15.93;;;7.70;;
55931;SDS011;41837;55.700;37.984;2022-12-17T03:54:49;20.60;;;10.35;;
55931;SDS011;41837;55.700;37.984;2022-12-17T03:57:34;26.50;;;12.77;;
55931;SDS011;41837;55.700;37.984;2022-12-17T04:00:19;21.80;;;10.38;;
55931;SDS011;41837;55.700;37.984;2022-12-17T04:03:04;27.50;;;13.82;;
55931;SDS011;41837;55.700;37.984;2022-12-17T04:05:49;16.90;;;8.52;;
55931;SDS011;41837;55.700;37.984;2022-12-17T04:11:19;16.00;;;8.00;;
55931;SDS011;41837;55.700;37.984;2022-12-17T04:14:04;17.27;;;8.73;;
55931;SDS011;41837;55.700;37.984;2022-12-17T04:16:49;13.67;;;7.00;;
55931;SDS011;41837;55.700;37.984;2022-12-17T04:19:33;17.63;;;7.68;;
55931;SDS011;41837;55.700;37.984;2022-12-17T04:22:18;27.27;;;8.10;;
55931;SDS011;41837;55.700;37.984;2022-12-17T04:25:04;17.73;;;7.75;;
55931;SDS011;41837;55.700;37.984;2022-12-17T04:30:34;21.65;;;10.35;;
55931;SDS011;41837;55.700;37.984;2022-12-17T04:33:19;21.08;;;9.50;;
55931;SDS011;41837;55.700;37.984;2022-12-17T04:36:03;12.57;;;5.93;;
55931;SDS011;41837;55.700;37.984;2022-12-17T04:41:34;23.15;;;9.13;;
55931;SDS011;41837;55.700;37.984;2022-12-17T04:44:19;16.77;;;8.30;;
55931;SDS011;41837;55.700;37.984;2022-12-17T04:47:07;18.60;;;8.30;;
55931;SDS011;41837;55.700;37.984;2022-12-17T04:49:52;20.73;;;9.90;;
55931;SDS011;41837;55.700;37.984;2022-12-17T04:52:37;17.35;;;8.80;;
55931;SDS011;41837;55.700;37.984;2022-12-17T04:55:22;17.00;;;8.90;;
55931;SDS011;41837;55.700;37.984;2022-12-17T04:58:06;22.65;;;6.93;;
55931;SDS011;41837;55.700;37.984;2022-12-17T05:00:52;17.35;;;8.73;;
55931;SDS011;41837;55.700;37.984;2022-12-17T05:03:38;15.93;;;8.07;;
55931;SDS011;41837;55.700;37.984;2022-12-17T05:06:24;16.92;;;8.65;;
55931;SDS011;41837;55.700;37.984;2022-12-17T05:09:09;17.98;;;9.15;;
55931;SDS011;41837;55.700;37.984;2022-12-17T05:11:54;19.63;;;9.40;;
55931;SDS011;41837;55.700;37.984;2022-12-17T05:14:38;13.15;;;6.15;;
55931;SDS011;41837;55.700;37.984;2022-12-17T05:17:24;17.67;;;8.00;;
55931;SDS011;41837;55.700;37.984;2022-12-17T05:20:08;14.57;;;7.45;;
55931;SDS011;41837;55.700;37.984;2022-12-17T05:22:53;13.05;;;6.60;;
55931;SDS011;41837;55.700;37.984;2022-12-17T05:25:39;15.60;;;7.78;;
55931;SDS011;41837;55.700;37.984;2022-12-17T05:28:23;21.00;;;9.73;;
55931;SDS011;41837;55.700;37.984;2022-12-17T05:31:08;15.02;;;8.57;;
55931;SDS011;41837;55.700;37.984;2022-12-17T05:33:53;16.30;;;7.45;;
55931;SDS011;41837;55.700;37.984;2022-12-17T05:36:38;18.27;;;8.90;;
55931;SDS011;41837;55.700;37.984;2022-12-17T05:39:23;22.95;;;10.02;;
55931;SDS011;41837;55.700;37.984;2022-12-17T05:42:07;21.27;;;10.23;;
55931;SDS011;41837;55.700;37.984;2022-12-17T05:44:52;15.27;;;7.57;;
55931;SDS011;41837;55.700;37.984;2022-12-17T05:50:32;23.17;;;9.88;;
55931;SDS011;41837;55.700;37.984;2022-12-17T05:53:18;19.27;;;8.70;;
55931;SDS011;41837;55.700;37.984;2022-12-17T05:56:03;22.13;;;8.88;;
55931;SDS011;41837;55.700;37.984;2022-12-17T05:58:48;17.45;;;8.52;;
55931;SDS011;41837;55.700;37.984;2022-12-17T06:01:33;16.17;;;7.83;;
55931;SDS011;41837;55.700;37.984;2022-12-17T06:04:18;12.55;;;6.57;;
55931;SDS011;41837;55.700;37.984;2022-12-17T06:07:02;20.75;;;9.77;;
55931;SDS011;41837;55.700;37.984;2022-12-17T06:09:47;22.05;;;10.80;;
55931;SDS011;41837;55.700;37.984;2022-12-17T06:12:32;20.17;;;9.25;;
55931;SDS011;41837;55.700;37.984;2022-12-17T06:15:16;16.30;;;7.68;;
55931;SDS011;41837;55.700;37.984;2022-12-17T06:18:01;14.30;;;6.72;;
55931;SDS011;41837;55.700;37.984;2022-12-17T06:20:47;20.20;;;9.40;;
55931;SDS011;41837;55.700;37.984;2022-12-17T06:26:17;19.77;;;8.90;;
55931;SDS011;41837;55.700;37.984;2022-12-17T06:31:57;15.65;;;7.13;;
55931;SDS011;41837;55.700;37.984;2022-12-17T06:34:42;18.17;;;7.18;;
55931;SDS011;41837;55.700;37.984;2022-12-17T06:37:29;28.02;;;12.52;;
55931;SDS011;41837;55.700;37.984;2022-12-17T06:40:14;24.00;;;9.93;;
55931;SDS011;41837;55.700;37.984;2022-12-17T06:42:59;27.23;;;12.32;;
55931;SDS011;41837;55.700;37.984;2022-12-17T06:45:44;27.90;;;13.48;;
55931;SDS011;41837;55.700;37.984;2022-12-17T06:48:29;24.13;;;12.52;;
55931;SDS011;41837;55.700;37.984;2022-12-17T06:51:14;15.43;;;7.80;;
55931;SDS011;41837;55.700;37.984;2022-12-17T06:53:59;26.00;;;12.48;;
55931;SDS011;41837;55.700;37.984;2022-12-17T06:56:44;18.52;;;8.55;;
55931;SDS011;41837;55.700;37.984;2022-12-17T06:59:29;17.08;;;8.48;;
55931;SDS011;41837;55.700;37.984;2022-12-17T07:02:14;23.27;;;10.00;;
55931;SDS011;41837;55.700;37.984;2022-12-17T07:04:58;27.10;;;12.73;;
55931;SDS011;41837;55.700;37.984;2022-12-17T07:07:43;19.08;;;9.50;;
55931;SDS011;41837;55.700;37.984;2022-12-17T07:10:28;20.90;;;10.40;;
55931;SDS011;41837;55.700;37.984;2022-12-17T07:13:13;30.23;;;11.18;;
55931;SDS011;41837;55.700;37.984;2022-12-17T07:15:58;23.37;;;10.07;;
55931;SDS011;41837;55.700;37.984;2022-12-17T07:18:43;30.40;;;12.63;;
55931;SDS011;41837;55.700;37.984;2022-12-17T07:21:28;23.05;;;10.35;;
55931;SDS011;41837;55.700;37.984;2022-12-17T07:24:13;24.92;;;12.00;;
55931;SDS011;41837;55.700;37.984;2022-12-17T07:26:58;31.60;;;13.13;;
55931;SDS011;41837;55.700;37.984;2022-12-17T07:29:43;25.40;;;11.30;;
55931;SDS011;41837;55.700;37.984;2022-12-17T07:32:29;27.15;;;12.60;;
55931;SDS011;41837;55.700;37.984;2022-12-17T07:35:14;26.38;;;11.13;;
55931;SDS011;41837;55.700;37.984;2022-12-17T07:38:00;26.80;;;13.32;;
55931;SDS011;41837;55.700;37.984;2022-12-17T07:40:47;23.23;;;11.38;;
55931;SDS011;41837;55.700;37.984;2022-12-17T07:43:32;26.75;;;13.40;;
55931;SDS011;41837;55.700;37.984;2022-12-17T07:49:02;17.15;;;9.30;;
55931;SDS011;41837;55.700;37.984;2022-12-17T07:51:47;30.70;;;13.32;;
55931;SDS011;41837;55.700;37.984;2022-12-17T07:54:32;24.33;;;9.75;;
55931;SDS011;41837;55.700;37.984;2022-12-17T07:57:17;26.07;;;11.70;;
55931;SDS011;41837;55.700;37.984;2022-12-17T08:00:03;24.50;;;10.32;;
55931;SDS011;41837;55.700;37.984;2022-12-17T08:02:54;27.52;;;13.82;;
55931;SDS011;41837;55.700;37.984;2022-12-17T08:05:43;25.98;;;12.85;;
55931;SDS011;41837;55.700;37.984;2022-12-17T08:08:29;26.05;;;12.43;;
55931;SDS011;41837;55.700;37.984;2022-12-17T08:11:14;26.95;;;10.68;;
55931;SDS011;41837;55.700;37.984;2022-12-17T08:13:59;20.67;;;10.07;;
55931;SDS011;41837;55.700;37.984;2022-12-17T08:16:45;26.73;;;12.57;;
55931;SDS011;41837;55.700;37.984;2022-12-17T08:19:41;27.00;;;12.07;;
55931;SDS011;41837;55.700;37.984;2022-12-17T08:22:26;25.65;;;11.13;;
55931;SDS011;41837;55.700;37.984;2022-12-17T08:25:11;22.63;;;11.05;;
55931;SDS011;41837;55.700;37.984;2022-12-17T08:27:57;23.70;;;11.60;;
55931;SDS011;41837;55.700;37.984;2022-12-17T08:30:47;22.30;;;9.73;;
55931;SDS011;41837;55.700;37.984;2022-12-17T08:33:32;20.13;;;9.02;;
55931;SDS011;41837;55.700;37.984;2022-12-17T08:36:21;18.25;;;9.68;;
55931;SDS011;41837;55.700;37.984;2022-12-17T08:39:06;17.10;;;8.05;;
55931;SDS011;41837;55.700;37.984;2022-12-17T08:41:51;22.80;;;11.38;;
55931;SDS011;41837;55.700;37.984;2022-12-17T08:44:36;19.75;;;10.10;;
55931;SDS011;41837;55.700;37.984;2022-12-17T08:47:22;22.83;;;11.25;;
55931;SDS011;41837;55.700;37.984;2022-12-17T08:50:07;21.55;;;11.38;;
55931;SDS011;41837;55.700;37.984;2022-12-17T08:52:59;23.65;;;11.60;;
55931;SDS011;41837;55.700;37.984;2022-12-17T08:55:45;24.20;;;11.85;;
55931;SDS011;41837;55.700;37.984;2022-12-17T08:58:30;24.80;;;9.98;;
55931;SDS011;41837;55.700;37.984;2022-12-17T09:04:01;16.85;;;8.70;;
55931;SDS011;41837;55.700;37.984;2022-12-17T09:06:46;19.95;;;8.45;;
55931;SDS011;41837;55.700;37.984;2022-12-17T09:12:16;23.00;;;9.55;;
55931;SDS011;41837;55.700;37.984;2022-12-17T09:15:01;27.17;;;12.27;;
55931;SDS011;41837;55.700;37.984;2022-12-17T09:17:46;19.92;;;9.10;;
55931;SDS011;41837;55.700;37.984;2022-12-17T09:20:31;23.90;;;11.30;;
55931;SDS011;41837;55.700;37.984;2022-12-17T09:23:16;24.92;;;11.05;;
55931;SDS011;41837;55.700;37.984;2022-12-17T09:26:01;26.42;;;11.88;;
55931;SDS011;41837;55.700;37.984;2022-12-17T09:28:47;25.55;;;11.60;;
55931;SDS011;41837;55.700;37.984;2022-12-17T09:31:33;26.25;;;11.43;;
55931;SDS011;41837;55.700;37.984;2022-12-17T09:34:18;27.17;;;10.73;;
55931;SDS011;41837;55.700;37.984;2022-12-17T09:39:48;23.52;;;11.32;;
55931;SDS011;41837;55.700;37.984;2022-12-17T09:43:11;24.65;;;11.05;;
55931;SDS011;41837;55.700;37.984;2022-12-17T09:46:01;24.35;;;10.60;;
55931;SDS011;41837;55.700;37.984;2022-12-17T09:51:49;26.20;;;10.80;;
55931;SDS011;41837;55.700;37.984;2022-12-17T09:54:40;21.20;;;10.20;;
55931;SDS011;41837;55.700;37.984;2022-12-17T09:57:32;20.52;;;9.48;;
55931;SDS011;41837;55.700;37.984;2022-12-17T10:00:19;26.17;;;11.25;;
55931;SDS011;41837;55.700;37.984;2022-12-17T10:06:09;22.17;;;10.48;;
55931;SDS011;41837;55.700;37.984;2022-12-17T10:08:59;21.92;;;9.73;;
55931;SDS011;41837;55.700;37.984;2022-12-17T10:11:46;18.88;;;8.75;;
55931;SDS011;41837;55.700;37.984;2022-12-17T10:14:31;20.30;;;9.57;;
55931;SDS011;41837;55.700;37.984;2022-12-17T10:17:22;23.70;;;12.27;;
55931;SDS011;41837;55.700;37.984;2022-12-17T10:23:06;13.18;;;7.40;;
55931;SDS011;41837;55.700;37.984;2022-12-17T10:25:52;15.88;;;9.15;;
55931;SDS011;41837;55.700;37.984;2022-12-17T10:28:38;21.00;;;11.10;;
55931;SDS011;41837;55.700;37.984;2022-12-17T10:31:38;21.17;;;10.70;;
55931;SDS011;41837;55.700;37.984;2022-12-17T10:34:23;20.00;;;9.10;;
55931;SDS011;41837;55.700;37.984;2022-12-17T10:40:01;22.92;;;9.38;;
55931;SDS011;41837;55.700;37.984;2022-12-17T10:42:58;17.20;;;9.05;;
55931;SDS011;41837;55.700;37.984;2022-12-17T10:45:51;21.13;;;11.00;;
55931;SDS011;41837;55.700;37.984;2022-12-17T10:48:38;22.25;;;10.73;;
55931;SDS011;41837;55.700;37.984;2022-12-17T10:54:30;21.25;;;10.65;;
55931;SDS011;41837;55.700;37.984;2022-12-17T11:00:13;19.90;;;9.77;;
55931;SDS011;41837;55.700;37.984;2022-12-17T11:06:28;19.58;;;10.05;;
55931;SDS011;41837;55.700;37.984;2022-12-17T11:12:04;20.70;;;10.30;;
55931;SDS011;41837;55.700;37.984;2022-12-17T11:14:53;16.30;;;8.13;;
55931;SDS011;41837;55.700;37.984;2022-12-17T11:17:42;20.88;;;11.07;;
55931;SDS011;41837;55.700;37.984;2022-12-17T11:20:41;25.88;;;12.55;;
55931;SDS011;41837;55.700;37.984;2022-12-17T11:23:31;21.08;;;11.07;;
55931;SDS011;41837;55.700;37.984;2022-12-17T11:27:01;25.40;;;10.85;;
55931;SDS011;41837;55.700;37.984;2022-12-17T11:29:50;22.60;;;11.77;;
55931;SDS011;41837;55.700;37.984;2022-12-17T11:32:57;20.90;;;9.57;;
55931;SDS011;41837;55.700;37.984;2022-12-17T11:35:51;26.33;;;13.00;;
55931;SDS011;41837;55.700;37.984;2022-12-17T11:38:53;12.93;;;5.78;;
55931;SDS011;41837;55.700;37.984;2022-12-17T11:42:03;18.00;;;9.18;;
55931;SDS011;41837;55.700;37.984;2022-12-17T11:48:22;22.52;;;9.80;;
55931;SDS011;41837;55.700;37.984;2022-12-17T11:51:17;15.40;;;7.22;;
55931;SDS011;41837;55.700;37.984;2022-12-17T12:00:48;20.15;;;8.50;;
55931;SDS011;41837;55.700;37.984;2022-12-17T12:03:52;19.17;;;9.88;;
55931;SDS011;41837;55.700;37.984;2022-12-17T12:06:56;22.73;;;10.50;;
55931;SDS011;41837;55.700;37.984;2022-12-17T12:15:40;23.25;;;10.75;;
55931;SDS011;41837;55.700;37.984;2022-12-17T12:19:04;19.33;;;8.80;;
55931;SDS011;41837;55.700;37.984;2022-12-17T12:21:55;20.92;;;9.57;;
55931;SDS011;41837;55.700;37.984;2022-12-17T12:34:31;23.90;;;9.98;;
55931;SDS011;41837;55.700;37.984;2022-12-17T12:37:19;21.20;;;8.38;;
55931;SDS011;41837;55.700;37.984;2022-12-17T12:40:22;15.45;;;7.60;;
55931;SDS011;41837;55.700;37.984;2022-12-17T12:43:25;21.98;;;10.00;;
55931;SDS011;41837;55.700;37.984;2022-12-17T12:46:15;20.88;;;9.50;;
55931;SDS011;41837;55.700;37.984;2022-12-17T12:49:25;20.88;;;8.05;;
55931;SDS011;41837;55.700;37.984;2022-12-17T12:52:23;20.27;;;9.00;;
55931;SDS011;41837;55.700;37.984;2022-12-17T12:55:09;21.92;;;10.23;;
55931;SDS011;41837;55.700;37.984;2022-12-17T13:09:29;25.13;;;11.02;;
55931;SDS011;41837;55.700;37.984;2022-12-17T13:17:27;22.85;;;8.90;;
55931;SDS011;41837;55.700;37.984;2022-12-17T13:20:01;25.27;;;10.15;;
55931;SDS011;41837;55.700;37.984;2022-12-17T13:22:49;19.50;;;9.73;;
55931;SDS011;41837;55.700;37.984;2022-12-17T13:25:19;28.80;;;10.50;;
55931;SDS011;41837;55.700;37.984;2022-12-17T13:27:48;27.67;;;12.15;;
55931;SDS011;41837;55.700;37.984;2022-12-17T13:36:06;21.42;;;9.32;;
55931;SDS011;41837;55.700;37.984;2022-12-17T13:43:52;22.50;;;10.63;;
55931;SDS011;41837;55.700;37.984;2022-12-17T13:46:25;23.70;;;9.98;;
55931;SDS011;41837;55.700;37.984;2022-12-17T13:49:02;23.45;;;12.43;;
55931;SDS011;41837;55.700;37.984;2022-12-17T13:51:31;23.73;;;11.73;;
55931;SDS011;41837;55.700;37.984;2022-12-17T13:54:00;25.17;;;11.82;;
55931;SDS011;41837;55.700;37.984;2022-12-17T13:56:29;23.55;;;12.13;;
55931;SDS011;41837;55.700;37.984;2022-12-17T13:58:57;21.55;;;10.73;;
55931;SDS011;41837;55.700;37.984;2022-12-17T14:01:24;21.10;;;9.73;;
55931;SDS011;41837;55.700;37.984;2022-12-17T14:03:52;21.63;;;10.63;;
55931;SDS011;41837;55.700;37.984;2022-12-17T14:06:20;27.08;;;12.43;;
55931;SDS011;41837;55.700;37.984;2022-12-17T14:08:49;21.77;;;10.30;;
55931;SDS011;41837;55.700;37.984;2022-12-17T14:11:17;23.67;;;11.25;;
55931;SDS011;41837;55.700;37.984;2022-12-17T14:14:02;24.23;;;11.52;;
55931;SDS011;41837;55.700;37.984;2022-12-17T14:16:33;20.90;;;9.50;;
55931;SDS011;41837;55.700;37.984;2022-12-17T14:18:59;23.08;;;11.50;;
55931;SDS011;41837;55.700;37.984;2022-12-17T14:21:26;21.10;;;10.82;;
55931;SDS011;41837;55.700;37.984;2022-12-17T14:23:54;27.33;;;11.68;;
55931;SDS011;41837;55.700;37.984;2022-12-17T14:26:22;21.58;;;11.45;;
55931;SDS011;41837;55.700;37.984;2022-12-17T14:28:50;23.77;;;11.98;;
55931;SDS011;41837;55.700;37.984;2022-12-17T14:31:24;22.20;;;11.75;;
55931;SDS011;41837;55.700;37.984;2022-12-17T14:34:06;30.55;;;12.80;;
55931;SDS011;41837;55.700;37.984;2022-12-17T14:36:36;29.75;;;14.15;;
55931;SDS011;41837;55.700;37.984;2022-12-17T14:39:14;30.00;;;14.50;;
55931;SDS011;41837;55.700;37.984;2022-12-17T14:41:49;32.47;;;15.00;;
55931;SDS011;41837;55.700;37.984;2022-12-17T14:44:34;27.48;;;14.02;;
55931;SDS011;41837;55.700;37.984;2022-12-17T14:47:16;37.35;;;16.05;;
55931;SDS011;41837;55.700;37.984;2022-12-17T14:49:49;33.50;;;16.95;;
55931;SDS011;41837;55.700;37.984;2022-12-17T14:58:08;31.95;;;14.70;;
55931;SDS011;41837;55.700;37.984;2022-12-17T15:00:40;32.55;;;14.77;;
55931;SDS011;41837;55.700;37.984;2022-12-17T15:03:28;27.40;;;13.93;;
55931;SDS011;41837;55.700;37.984;2022-12-17T15:05:59;33.30;;;16.25;;
55931;SDS011;41837;55.700;37.984;2022-12-17T15:08:34;32.58;;;16.65;;
55931;SDS011;41837;55.700;37.984;2022-12-17T15:11:04;36.25;;;15.52;;
55931;SDS011;41837;55.700;37.984;2022-12-17T15:13:31;34.00;;;15.05;;
55931;SDS011;41837;55.700;37.984;2022-12-17T15:15:57;33.10;;;15.15;;
55931;SDS011;41837;55.700;37.984;2022-12-17T15:18:23;29.90;;;11.70;;
55931;SDS011;41837;55.700;37.984;2022-12-17T15:20:50;33.42;;;15.77;;
55931;SDS011;41837;55.700;37.984;2022-12-17T15:23:17;35.65;;;15.82;;
55931;SDS011;41837;55.700;37.984;2022-12-17T15:25:46;35.67;;;17.10;;
55931;SDS011;41837;55.700;37.984;2022-12-17T15:28:32;32.05;;;17.08;;
55931;SDS011;41837;55.700;37.984;2022-12-17T15:30:58;31.38;;;14.40;;
55931;SDS011;41837;55.700;37.984;2022-12-17T15:33:25;30.48;;;14.52;;
55931;SDS011;41837;55.700;37.984;2022-12-17T15:39:16;38.63;;;16.02;;
55931;SDS011;41837;55.700;37.984;2022-12-17T15:45:49;29.35;;;12.88;;
55931;SDS011;41837;55.700;37.984;2022-12-17T15:48:21;30.50;;;15.18;;
55931;SDS011;41837;55.700;37.984;2022-12-17T15:50:50;29.52;;;13.55;;
55931;SDS011;41837;55.700;37.984;2022-12-17T15:57:00;28.25;;;12.48;;
55931;SDS011;41837;55.700;37.984;2022-12-17T15:59:27;31.05;;;13.55;;
55931;SDS011;41837;55.700;37.984;2022-12-17T16:01:53;28.27;;;13.65;;
55931;SDS011;41837;55.700;37.984;2022-12-17T16:04:20;28.15;;;13.98;;
55931;SDS011;41837;55.700;37.984;2022-12-17T16:06:46;29.15;;;12.18;;
55931;SDS011;41837;55.700;37.984;2022-12-17T16:09:13;24.58;;;10.50;;
55931;SDS011;41837;55.700;37.984;2022-12-17T16:11:39;27.80;;;14.05;;
55931;SDS011;41837;55.700;37.984;2022-12-17T16:14:06;39.08;;;15.07;;
55931;SDS011;41837;55.700;37.984;2022-12-17T16:16:32;36.17;;;16.13;;
55931;SDS011;41837;55.700;37.984;2022-12-17T16:18:59;33.38;;;15.40;;
55931;SDS011;41837;55.700;37.984;2022-12-17T16:21:26;31.15;;;14.98;;
55931;SDS011;41837;55.700;37.984;2022-12-17T16:23:53;23.70;;;11.48;;
55931;SDS011;41837;55.700;37.984;2022-12-17T16:26:20;35.10;;;16.33;;
55931;SDS011;41837;55.700;37.984;2022-12-17T16:28:46;28.67;;;14.80;;
55931;SDS011;41837;55.700;37.984;2022-12-17T16:31:13;27.65;;;13.82;;
55931;SDS011;41837;55.700;37.984;2022-12-17T16:33:41;33.33;;;15.02;;
55931;SDS011;41837;55.700;37.984;2022-12-17T16:36:11;31.42;;;14.02;;
55931;SDS011;41837;55.700;37.984;2022-12-17T16:38:44;28.10;;;11.70;;
55931;SDS011;41837;55.700;37.984;2022-12-17T16:41:13;34.10;;;15.15;;
55931;SDS011;41837;55.700;37.984;2022-12-17T16:43:40;31.42;;;13.30;;
55931;SDS011;41837;55.700;37.984;2022-12-17T16:46:23;44.30;;;19.13;;
55931;SDS011;41837;55.700;37.984;2022-12-17T16:51:47;31.52;;;13.52;;
55931;SDS011;41837;55.700;37.984;2022-12-17T16:54:24;32.72;;;12.95;;
55931;SDS011;41837;55.700;37.984;2022-12-17T16:56:52;33.33;;;13.25;;
55931;SDS011;41837;55.700;37.984;2022-12-17T16:59:18;35.20;;;16.60;;
55931;SDS011;41837;55.700;37.984;2022-12-17T17:01:46;33.42;;;14.32;;
55931;SDS011;41837;55.700;37.984;2022-12-17T17:04:16;35.83;;;16.63;;
55931;SDS011;41837;55.700;37.984;2022-12-17T17:06:46;30.02;;;11.63;;
55931;SDS011;41837;55.700;37.984;2022-12-17T17:09:14;35.08;;;15.20;;
55931;SDS011;41837;55.700;37.984;2022-12-17T17:11:41;33.03;;;12.90;;
55931;SDS011;41837;55.700;37.984;2022-12-17T17:14:07;35.88;;;16.70;;
55931;SDS011;41837;55.700;37.984;2022-12-17T17:16:35;34.33;;;14.40;;
55931;SDS011;41837;55.700;37.984;2022-12-17T17:19:02;29.42;;;12.75;;
55931;SDS011;41837;55.700;37.984;2022-12-17T17:21:33;36.85;;;16.70;;
55931;SDS011;41837;55.700;37.984;2022-12-17T17:24:03;26.52;;;10.43;;
55931;SDS011;41837;55.700;37.984;2022-12-17T17:26:37;34.45;;;16.25;;
55931;SDS011;41837;55.700;37.984;2022-12-17T17:29:05;33.40;;;15.43;;
55931;SDS011;41837;55.700;37.984;2022-12-17T17:31:32;41.95;;;16.52;;
55931;SDS011;41837;55.700;37.984;2022-12-17T17:33:59;32.60;;;15.07;;
55931;SDS011;41837;55.700;37.984;2022-12-17T17:36:27;20.70;;;10.45;;
55931;SDS011;41837;55.700;37.984;2022-12-17T17:38:55;36.45;;;15.63;;
55931;SDS011;41837;55.700;37.984;2022-12-17T17:41:25;30.70;;;13.98;;
55931;SDS011;41837;55.700;37.984;2022-12-17T17:43:57;25.23;;;11.93;;
55931;SDS011;41837;55.700;37.984;2022-12-17T17:46:26;22.23;;;9.60;;
55931;SDS011;41837;55.700;37.984;2022-12-17T17:48:54;25.67;;;11.88;;
55931;SDS011;41837;55.700;37.984;2022-12-17T17:51:27;35.97;;;16.90;;
55931;SDS011;41837;55.700;37.984;2022-12-17T17:53:58;30.67;;;13.15;;
55931;SDS011;41837;55.700;37.984;2022-12-17T17:56:28;31.75;;;14.60;;
55931;SDS011;41837;55.700;37.984;2022-12-17T17:58:57;34.42;;;14.93;;
55931;SDS011;41837;55.700;37.984;2022-12-17T18:01:30;25.25;;;11.23;;
55931;SDS011;41837;55.700;37.984;2022-12-17T18:03:58;32.97;;;15.90;;